createdAt,value
2023-03-19T00:01:55.869Z,37.60
2023-03-19T00:04:27.750Z,36.92
2023-03-19T00:06:58.124Z,39.17
2023-03-19T00:09:28.960Z,35.58
2023-03-19T00:11:59.550Z,37.45
2023-03-19T00:14:29.920Z,33.38
2023-03-19T00:17:00.333Z,39.08
2023-03-19T00:19:31.847Z,34.85
2023-03-19T00:22:02.166Z,33.53
2023-03-19T00:24:32.734Z,38.75
2023-03-19T00:27:05.206Z,34.72
2023-03-19T00:29:36.455Z,29.23
2023-03-19T00:32:07.395Z,37.95
2023-03-19T00:34:38.317Z,36.85
2023-03-19T00:37:08.996Z,35.35
2023-03-19T00:39:39.396Z,37.00
2023-03-19T00:42:10.634Z,37.92
2023-03-19T00:44:45.618Z,34.10
2023-03-19T00:47:16.608Z,33.30
2023-03-19T00:49:47.300Z,34.67
2023-03-19T00:52:18.516Z,32.72
2023-03-19T00:54:48.837Z,38.40
2023-03-19T00:57:19.275Z,32.15
2023-03-19T00:59:49.790Z,39.38
2023-03-19T01:02:20.609Z,34.10
2023-03-19T01:04:51.621Z,36.55
2023-03-19T01:07:22.821Z,35.67
2023-03-19T01:09:53.541Z,34.97
2023-03-19T01:12:24.531Z,36.53
2023-03-19T01:14:55.051Z,38.03
2023-03-19T01:17:25.407Z,34.25
2023-03-19T01:19:55.779Z,33.10
2023-03-19T01:22:26.222Z,32.03
2023-03-19T01:25:00.426Z,38.13
2023-03-19T01:27:32.310Z,31.20
2023-03-19T01:30:04.932Z,33.25
2023-03-19T01:33:08.201Z,36.65
2023-03-19T01:36:07.389Z,35.30
2023-03-19T01:38:53.274Z,36.47
2023-03-19T01:41:24.628Z,36.75
2023-03-19T01:43:57.941Z,35.95
2023-03-19T01:46:41.871Z,41.97
2023-03-19T01:49:33.636Z,35.75
2023-03-19T01:52:33.964Z,34.67
2023-03-19T01:55:21.788Z,33.38
2023-03-19T01:58:09.300Z,35.17
2023-03-19T02:01:03.068Z,36.30
2023-03-19T02:03:36.894Z,28.70
2023-03-19T02:06:21.460Z,38.80
2023-03-19T02:08:53.405Z,35.75
2023-03-19T02:11:23.960Z,30.40
2023-03-19T02:13:54.512Z,31.52
2023-03-19T02:16:25.626Z,30.55
2023-03-19T02:18:57.221Z,38.03
2023-03-19T02:21:27.971Z,29.55
2023-03-19T02:24:10.838Z,33.05
2023-03-19T02:26:54.422Z,35.33
2023-03-19T02:29:24.821Z,30.23
2023-03-19T02:31:56.279Z,34.25
2023-03-19T02:34:26.572Z,31.98
2023-03-19T02:37:03.979Z,34.00
2023-03-19T02:39:52.142Z,32.75
2023-03-19T02:42:26.267Z,33.65
2023-03-19T02:44:56.662Z,35.95
2023-03-19T02:47:28.570Z,36.22
2023-03-19T02:49:59.038Z,31.33
2023-03-19T02:52:29.873Z,33.85
2023-03-19T02:55:00.160Z,35.60
2023-03-19T02:57:30.692Z,28.98
2023-03-19T03:00:01.069Z,32.08
2023-03-19T03:02:32.571Z,37.40
2023-03-19T03:05:03.126Z,32.78
2023-03-19T03:07:34.196Z,30.42
2023-03-19T03:10:04.754Z,30.25
2023-03-19T03:12:35.110Z,32.00
2023-03-19T03:15:05.880Z,39.67
2023-03-19T03:17:39.629Z,33.42
2023-03-19T03:20:13.012Z,30.90
2023-03-19T03:22:43.770Z,32.97
2023-03-19T03:25:15.215Z,33.80
2023-03-19T03:27:45.786Z,31.13
2023-03-19T03:30:17.713Z,36.53
2023-03-19T03:32:48.453Z,28.25
2023-03-19T03:35:23.521Z,33.00
2023-03-19T03:37:54.714Z,32.75
2023-03-19T03:40:25.053Z,30.88
2023-03-19T03:42:55.687Z,28.88
2023-03-19T03:45:27.219Z,32.33
2023-03-19T03:47:57.775Z,31.83
2023-03-19T03:50:28.309Z,30.38
2023-03-19T03:53:02.433Z,34.63
2023-03-19T03:55:34.600Z,29.73
2023-03-19T03:58:06.264Z,32.83
2023-03-19T04:00:36.907Z,35.75
2023-03-19T04:03:07.891Z,33.15
2023-03-19T04:05:39.482Z,30.67
2023-03-19T04:08:11.094Z,36.43
2023-03-19T04:10:44.452Z,32.05
2023-03-19T04:13:15.595Z,33.53
2023-03-19T04:15:46.952Z,39.22
2023-03-19T04:18:18.300Z,31.63
2023-03-19T04:20:49.230Z,33.65
2023-03-19T04:23:19.708Z,39.40
2023-03-19T04:25:50.069Z,37.20
2023-03-19T04:28:20.533Z,36.72
2023-03-19T04:30:51.011Z,32.33
2023-03-19T04:33:22.424Z,33.40
2023-03-19T04:35:53.438Z,32.78
2023-03-19T04:38:25.447Z,31.20
2023-03-19T04:40:56.627Z,34.97
2023-03-19T04:43:28.059Z,30.15
2023-03-19T04:45:58.538Z,29.58
2023-03-19T04:48:28.998Z,39.80
2023-03-19T04:50:59.858Z,35.58
2023-03-19T04:53:30.459Z,37.03
2023-03-19T04:56:01.208Z,34.75
2023-03-19T04:58:32.717Z,35.08
2023-03-19T05:01:05.685Z,31.77
2023-03-19T05:03:59.250Z,33.72
2023-03-19T05:06:29.817Z,32.63
2023-03-19T05:09:01.069Z,34.10
2023-03-19T05:11:31.549Z,37.25
2023-03-19T05:14:19.645Z,34.75
2023-03-19T05:17:12.835Z,33.38
2023-03-19T05:20:09.697Z,37.13
2023-03-19T05:22:41.589Z,32.67
2023-03-19T05:25:11.960Z,38.50
2023-03-19T05:27:44.202Z,33.23
2023-03-19T05:30:20.976Z,32.88
2023-03-19T05:33:12.070Z,29.63
2023-03-19T05:35:44.892Z,33.55
2023-03-19T05:38:22.605Z,32.70
2023-03-19T05:41:09.732Z,37.70
2023-03-19T05:43:51.392Z,29.90
2023-03-19T05:46:37.179Z,37.22
2023-03-19T05:49:07.976Z,32.42
2023-03-19T05:51:38.681Z,30.23
2023-03-19T05:54:10.597Z,29.33
2023-03-19T05:57:14.000Z,30.75
2023-03-19T06:00:06.631Z,28.75
2023-03-19T06:02:38.396Z,27.13
2023-03-19T06:05:40.835Z,28.75
2023-03-19T06:08:31.415Z,33.08
2023-03-19T06:11:12.397Z,28.23
2023-03-19T06:13:45.020Z,30.35
2023-03-19T06:16:19.072Z,29.30
2023-03-19T06:18:57.059Z,27.73
2023-03-19T06:21:31.024Z,30.00
2023-03-19T06:24:05.010Z,25.48
2023-03-19T06:26:39.033Z,29.88
2023-03-19T06:29:17.243Z,29.35
2023-03-19T06:31:52.480Z,32.97
2023-03-19T06:34:29.892Z,32.92
2023-03-19T06:37:00.272Z,32.25
2023-03-19T06:39:30.792Z,28.45
2023-03-19T06:42:02.038Z,27.17
2023-03-19T06:44:32.474Z,32.17
2023-03-19T06:47:03.737Z,26.80
2023-03-19T06:49:34.636Z,30.80
2023-03-19T06:52:05.074Z,30.17
2023-03-19T06:54:38.377Z,25.77
2023-03-19T06:57:09.023Z,29.48
2023-03-19T06:59:39.423Z,28.95
2023-03-19T07:02:11.952Z,25.70
2023-03-19T07:04:42.872Z,25.95
2023-03-19T07:07:13.308Z,27.92
2023-03-19T07:09:43.544Z,26.35
2023-03-19T07:12:13.868Z,28.85
2023-03-19T07:14:44.560Z,31.23
2023-03-19T07:17:15.088Z,24.70
2023-03-19T07:19:45.802Z,28.30
2023-03-19T07:22:16.326Z,24.48
2023-03-19T07:24:47.056Z,27.02
2023-03-19T07:27:18.051Z,28.00
2023-03-19T07:29:48.923Z,25.88
2023-03-19T07:32:19.935Z,24.38
2023-03-19T07:34:50.626Z,23.88
2023-03-19T07:37:22.612Z,25.25
2023-03-19T07:39:53.671Z,27.17
2023-03-19T07:42:23.980Z,27.05
2023-03-19T07:44:54.489Z,27.90
2023-03-19T07:47:29.287Z,22.38
2023-03-19T07:50:00.682Z,25.58
2023-03-19T07:52:31.069Z,24.48
2023-03-19T07:55:01.742Z,26.60
2023-03-19T07:57:33.064Z,27.27
2023-03-19T08:00:03.784Z,23.48
2023-03-19T08:02:44.381Z,22.70
2023-03-19T08:05:14.925Z,28.10
2023-03-19T08:07:46.468Z,25.30
2023-03-19T08:10:17.759Z,24.70
2023-03-19T08:12:48.175Z,22.92
2023-03-19T08:15:18.831Z,23.55
2023-03-19T08:17:50.611Z,25.15
2023-03-19T08:20:22.763Z,20.83
2023-03-19T08:22:53.482Z,24.05
2023-03-19T08:25:24.002Z,24.80
2023-03-19T08:27:54.512Z,21.27
2023-03-19T08:30:25.167Z,22.20
2023-03-19T08:32:55.745Z,25.15
2023-03-19T08:35:28.593Z,23.17
2023-03-19T08:37:59.215Z,23.58
2023-03-19T08:40:30.268Z,26.67
2023-03-19T08:43:00.537Z,29.77
2023-03-19T08:45:31.046Z,27.48
2023-03-19T08:48:01.849Z,36.10
2023-03-19T08:50:32.788Z,32.00
2023-03-19T08:53:03.465Z,28.33
2023-03-19T08:55:33.801Z,33.65
2023-03-19T08:58:04.124Z,31.98
2023-03-19T09:00:34.647Z,32.17
2023-03-19T09:03:05.205Z,36.38
2023-03-19T09:05:35.802Z,34.72
2023-03-19T09:08:07.050Z,32.00
2023-03-19T09:10:37.924Z,36.33
2023-03-19T09:13:08.655Z,31.20
2023-03-19T09:15:39.036Z,33.80
2023-03-19T09:18:10.191Z,32.90
2023-03-19T09:20:41.352Z,34.38
2023-03-19T09:23:11.878Z,34.40
2023-03-19T09:25:43.152Z,35.30
2023-03-19T09:28:13.968Z,34.03
2023-03-19T09:30:44.972Z,33.22
2023-03-19T09:33:15.600Z,37.17
2023-03-19T09:35:50.674Z,32.55
2023-03-19T09:38:22.745Z,31.05
2023-03-19T09:41:11.346Z,29.15
2023-03-19T09:44:05.468Z,34.67
2023-03-19T09:46:56.008Z,33.55
2023-03-19T09:49:33.929Z,31.48
2023-03-19T09:52:39.229Z,39.17
2023-03-19T09:55:34.403Z,43.20
2023-03-19T09:58:12.741Z,35.25
2023-03-19T10:00:44.979Z,38.17
2023-03-19T10:03:33.373Z,35.20
2023-03-19T10:06:31.589Z,39.80
2023-03-19T10:09:20.088Z,33.92
2023-03-19T10:12:23.667Z,35.88
2023-03-19T10:15:17.693Z,35.90
2023-03-19T10:17:48.834Z,39.60
2023-03-19T10:20:51.458Z,37.30
2023-03-19T10:23:34.076Z,37.60
2023-03-19T10:26:08.815Z,41.00
2023-03-19T10:28:41.463Z,41.10
2023-03-19T10:31:29.116Z,47.30
2023-03-19T10:34:05.453Z,43.60
2023-03-19T10:36:38.439Z,37.72
2023-03-19T10:39:09.384Z,44.83
2023-03-19T10:41:52.668Z,41.33
2023-03-19T10:44:44.886Z,44.33
2023-03-19T10:47:18.151Z,45.20
2023-03-19T10:49:49.182Z,42.45
2023-03-19T10:52:31.569Z,41.17
2023-03-19T10:55:31.770Z,46.65
2023-03-19T10:58:08.646Z,46.22
2023-03-19T11:00:39.716Z,42.60
2023-03-19T11:03:30.822Z,42.83
2023-03-19T11:06:22.647Z,47.60
2023-03-19T11:09:00.775Z,46.70
2023-03-19T11:11:39.102Z,44.35
2023-03-19T11:14:17.532Z,44.00
2023-03-19T11:17:18.868Z,45.42
2023-03-19T11:20:18.033Z,51.22
2023-03-19T11:22:49.088Z,43.50
2023-03-19T11:25:44.768Z,46.75
2023-03-19T11:28:21.839Z,44.55
2023-03-19T11:31:16.762Z,53.38
2023-03-19T11:34:12.093Z,52.28
2023-03-19T11:37:05.123Z,49.15
2023-03-19T11:39:56.996Z,48.70
2023-03-19T11:42:46.812Z,51.55
2023-03-19T11:45:29.327Z,51.45
2023-03-19T11:48:19.235Z,57.37
2023-03-19T11:50:55.487Z,52.38
2023-03-19T11:53:45.804Z,56.80
2023-03-19T11:56:37.356Z,49.20
2023-03-19T11:59:34.134Z,53.90
2023-03-19T12:02:22.912Z,55.58
2023-03-19T12:05:03.122Z,56.78
2023-03-19T12:07:51.559Z,50.38
2023-03-19T12:11:14.649Z,48.05
2023-03-19T12:13:50.736Z,53.80
2023-03-19T12:16:46.476Z,51.28
2023-03-19T12:19:35.461Z,48.30
2023-03-19T12:22:43.713Z,56.03
2023-03-19T12:25:46.462Z,57.92
2023-03-19T12:28:23.310Z,58.05
2023-03-19T12:31:11.968Z,57.65
2023-03-19T12:33:57.985Z,57.00
2023-03-19T12:36:33.712Z,53.58
2023-03-19T12:39:17.049Z,52.95
2023-03-19T12:41:51.570Z,56.17
2023-03-19T12:44:33.199Z,57.35
2023-03-19T12:47:14.499Z,49.97
2023-03-19T12:49:59.064Z,55.90
2023-03-19T12:52:32.828Z,52.80
2023-03-19T12:55:24.820Z,57.13
2023-03-19T12:58:05.966Z,56.20
2023-03-19T13:00:45.352Z,57.80
2023-03-19T13:03:21.308Z,54.92
2023-03-19T13:06:02.729Z,56.83
2023-03-19T13:09:01.908Z,54.50
2023-03-19T13:11:50.018Z,55.50
2023-03-19T13:14:38.961Z,53.53
2023-03-19T13:17:47.173Z,58.40
2023-03-19T13:20:52.525Z,58.88
2023-03-19T13:23:31.414Z,62.30
2023-03-19T13:26:06.165Z,54.10
2023-03-19T13:28:55.317Z,60.33
2023-03-19T13:31:30.575Z,57.53
2023-03-19T13:34:05.478Z,56.95
2023-03-19T13:36:43.877Z,58.60
2023-03-19T13:39:19.454Z,52.90
2023-03-19T13:42:01.232Z,65.70
2023-03-19T13:44:36.014Z,60.10
2023-03-19T13:47:35.089Z,61.50
2023-03-19T13:50:17.514Z,60.72
2023-03-19T13:52:47.850Z,62.72
2023-03-19T13:55:29.910Z,62.15
2023-03-19T13:58:35.562Z,62.03
2023-03-19T14:01:09.053Z,58.13
2023-03-19T14:03:55.666Z,62.50
2023-03-19T14:06:35.038Z,64.78
2023-03-19T14:09:07.659Z,60.40
2023-03-19T14:11:39.838Z,59.17
2023-03-19T14:14:17.283Z,63.33
2023-03-19T14:16:48.437Z,62.75
2023-03-19T14:19:22.657Z,63.80
2023-03-19T14:22:05.745Z,61.67
2023-03-19T14:27:48.501Z,60.00
2023-03-19T14:30:37.766Z,57.67
2023-03-19T14:33:19.436Z,56.22
2023-03-19T14:35:51.998Z,57.10
2023-03-19T14:38:34.794Z,65.35
2023-03-19T14:41:06.959Z,59.20
2023-03-19T14:43:58.703Z,63.92
2023-03-19T14:46:47.773Z,61.90
2023-03-19T14:50:01.720Z,60.33
2023-03-19T14:52:37.406Z,64.00
2023-03-19T14:55:19.254Z,61.63
2023-03-19T14:58:25.723Z,62.72
2023-03-19T15:02:08.980Z,59.38
2023-03-19T15:05:00.498Z,55.30
2023-03-19T15:08:10.072Z,60.50
2023-03-19T15:11:30.420Z,65.82
2023-03-19T15:14:18.896Z,64.53
2023-03-19T15:17:42.570Z,62.13
2023-03-19T15:20:57.580Z,58.25
2023-03-19T15:23:47.524Z,57.85
2023-03-19T15:26:39.835Z,61.00
2023-03-19T15:29:29.419Z,64.68
2023-03-19T15:32:52.243Z,58.45
2023-03-19T15:35:30.751Z,64.22
2023-03-19T15:38:05.035Z,59.60
2023-03-19T15:40:37.866Z,57.90
2023-03-19T15:43:11.326Z,61.55
2023-03-19T15:45:44.341Z,62.50
2023-03-19T15:48:23.872Z,64.95
2023-03-19T15:51:01.728Z,61.83
2023-03-19T15:53:36.457Z,61.97
2023-03-19T15:56:07.902Z,63.35
2023-03-19T15:58:48.576Z,58.08
2023-03-19T16:01:20.923Z,62.35
2023-03-19T16:04:04.214Z,62.28
2023-03-19T16:06:40.974Z,61.83
2023-03-19T16:09:17.282Z,65.28
2023-03-19T16:11:49.156Z,59.45
2023-03-19T16:14:27.601Z,62.60
2023-03-19T16:17:15.736Z,60.80
2023-03-19T16:20:00.147Z,60.92
2023-03-19T16:22:34.978Z,58.05
2023-03-19T16:25:09.245Z,61.05
2023-03-19T16:27:44.403Z,63.28
2023-03-19T16:30:24.609Z,63.90
2023-03-19T16:33:06.562Z,63.50
2023-03-19T16:35:39.169Z,65.10
2023-03-19T16:38:31.542Z,61.65
2023-03-19T16:41:24.961Z,60.90
2023-03-19T16:43:56.886Z,62.10
2023-03-19T16:46:28.639Z,64.18
2023-03-19T16:48:58.841Z,64.53
2023-03-19T16:51:29.123Z,66.10
2023-03-19T16:53:59.407Z,66.00
2023-03-19T16:56:29.970Z,62.28
2023-03-19T16:59:04.336Z,62.03
2023-03-19T17:01:34.930Z,67.78
2023-03-19T17:04:14.712Z,63.50
2023-03-19T17:06:45.623Z,65.82
2023-03-19T17:09:15.972Z,64.15
2023-03-19T17:11:46.769Z,63.33
2023-03-19T17:14:23.489Z,62.55
2023-03-19T17:16:53.951Z,65.38
2023-03-19T17:19:33.665Z,64.05
2023-03-19T17:22:04.911Z,59.10
2023-03-19T17:24:36.356Z,64.97
2023-03-19T17:27:07.152Z,61.47
2023-03-19T17:29:37.516Z,61.35
2023-03-19T17:32:15.430Z,63.17
2023-03-19T17:34:45.872Z,62.28
2023-03-19T17:37:17.226Z,62.60
2023-03-19T17:39:48.539Z,66.57
2023-03-19T17:42:24.989Z,64.15
2023-03-19T17:44:58.265Z,63.30
2023-03-19T17:47:28.689Z,63.25
2023-03-19T17:49:59.786Z,65.32
2023-03-19T17:52:31.907Z,65.90
2023-03-19T17:55:02.495Z,69.63
2023-03-19T17:57:33.274Z,62.03
2023-03-19T18:00:03.876Z,67.53
2023-03-19T18:02:37.228Z,65.18
2023-03-19T18:05:08.919Z,61.47
2023-03-19T18:07:39.233Z,62.65
2023-03-19T18:10:13.431Z,63.92
2023-03-19T18:12:43.918Z,59.25
2023-03-19T18:15:15.251Z,62.80
2023-03-19T18:17:59.230Z,64.10
2023-03-19T18:23:02.199Z,68.25
2023-03-19T18:25:37.208Z,64.20
2023-03-19T18:28:08.398Z,63.22
2023-03-19T18:30:41.406Z,65.65
2023-03-19T18:33:27.855Z,63.10
2023-03-19T18:35:59.741Z,67.20
2023-03-19T18:38:30.153Z,60.42
2023-03-19T18:41:00.763Z,68.70
2023-03-19T18:43:31.354Z,68.28
2023-03-19T18:46:02.199Z,63.45
2023-03-19T18:48:33.856Z,68.78
2023-03-19T18:51:04.202Z,66.65
2023-03-19T18:53:34.837Z,68.75
2023-03-19T18:56:09.381Z,63.88
2023-03-19T18:58:40.984Z,67.88
2023-03-19T19:01:16.445Z,64.65
2023-03-19T19:03:49.443Z,68.40
2023-03-19T19:06:46.020Z,65.90
2023-03-19T19:09:17.717Z,68.53
2023-03-19T19:11:50.071Z,68.35
2023-03-19T19:14:23.477Z,66.70
2023-03-19T19:16:55.682Z,70.80
2023-03-19T19:19:29.138Z,66.47
2023-03-19T19:21:59.597Z,69.55
2023-03-19T19:24:30.113Z,71.18
2023-03-19T19:27:03.030Z,70.03
2023-03-19T19:29:33.993Z,66.38
2023-03-19T19:32:05.942Z,73.10
2023-03-19T19:34:36.338Z,73.97
2023-03-19T19:37:06.854Z,68.20
2023-03-19T19:39:37.287Z,69.15
2023-03-19T19:42:07.894Z,68.78
2023-03-19T19:44:39.114Z,70.60
2023-03-19T19:47:17.181Z,69.78
2023-03-19T19:49:47.688Z,64.18
2023-03-19T19:52:20.434Z,68.63
2023-03-19T19:54:53.205Z,75.30
2023-03-19T19:57:28.441Z,73.68
2023-03-19T19:59:59.130Z,78.05
2023-03-19T20:02:31.333Z,74.07
2023-03-19T20:05:01.734Z,71.30
2023-03-19T20:07:32.238Z,70.32
2023-03-19T20:10:02.722Z,81.80
2023-03-19T20:12:34.985Z,77.13
2023-03-19T20:15:05.684Z,76.60
2023-03-19T20:17:36.155Z,78.97
2023-03-19T20:20:14.849Z,74.40
2023-03-19T20:22:45.432Z,76.95
2023-03-19T20:25:16.407Z,77.68
2023-03-19T20:27:48.354Z,79.00
2023-03-19T20:30:33.885Z,76.97
2023-03-19T20:33:05.219Z,79.00
2023-03-19T20:35:38.360Z,78.68
2023-03-19T20:38:09.068Z,79.20
2023-03-19T20:40:53.552Z,84.60
2023-03-19T20:43:36.098Z,79.75
2023-03-19T20:46:09.230Z,81.70
2023-03-19T20:48:40.350Z,77.00
2023-03-19T20:51:20.073Z,86.65
2023-03-19T20:53:52.135Z,86.55
2023-03-19T20:56:28.810Z,82.05
2023-03-19T20:59:00.106Z,93.00
2023-03-19T21:01:30.617Z,93.63
2023-03-19T21:04:01.010Z,91.47
2023-03-19T21:06:46.064Z,90.97
2023-03-19T21:09:20.511Z,79.00
2023-03-19T21:11:50.837Z,65.68
2023-03-19T21:14:21.836Z,60.20
2023-03-19T21:16:52.535Z,57.42
2023-03-19T21:19:23.884Z,58.10
2023-03-19T21:21:54.282Z,44.45
2023-03-19T21:24:26.231Z,54.83
2023-03-19T21:26:57.638Z,44.97
2023-03-19T21:29:34.965Z,42.83
2023-03-19T21:32:06.032Z,41.97
2023-03-19T21:34:36.475Z,45.40
2023-03-19T21:37:07.676Z,44.65
2023-03-19T21:39:38.110Z,41.33
2023-03-19T21:42:10.750Z,35.25
2023-03-19T21:44:41.466Z,41.30
2023-03-19T21:47:19.048Z,36.22
2023-03-19T21:49:51.389Z,38.22
2023-03-19T21:52:23.566Z,34.60
2023-03-19T21:54:54.009Z,34.42
2023-03-19T21:57:25.554Z,36.17
2023-03-19T21:59:56.186Z,33.40
2023-03-19T22:02:29.353Z,36.40
2023-03-19T22:05:00.123Z,32.17
2023-03-19T22:07:30.378Z,28.27
2023-03-19T22:10:01.201Z,30.83
2023-03-19T22:12:34.597Z,29.30
2023-03-19T22:15:05.729Z,32.10
2023-03-19T22:17:36.497Z,32.58
2023-03-19T22:20:07.289Z,30.55
2023-03-19T22:22:37.644Z,31.17
2023-03-19T22:25:08.419Z,25.77
2023-03-19T22:27:39.032Z,27.48
2023-03-19T22:30:20.748Z,30.92
2023-03-19T22:32:52.785Z,25.63
2023-03-19T22:35:23.264Z,25.23
2023-03-19T22:37:53.619Z,29.88
2023-03-19T22:40:23.994Z,27.45
2023-03-19T22:42:55.530Z,25.63
2023-03-19T22:45:31.999Z,28.00
2023-03-19T22:48:02.689Z,27.30
2023-03-19T22:50:34.420Z,27.00
2023-03-19T22:53:05.021Z,26.88
2023-03-19T22:55:37.167Z,25.67
2023-03-19T22:58:07.835Z,26.60
2023-03-19T23:00:38.354Z,23.10
2023-03-19T23:03:16.384Z,25.60
2023-03-19T23:05:50.378Z,20.67
2023-03-19T23:08:21.251Z,23.80
2023-03-19T23:10:53.417Z,25.27
2023-03-19T23:13:24.825Z,28.20
2023-03-19T23:16:02.475Z,31.38
2023-03-19T23:18:38.666Z,34.35
2023-03-19T23:21:13.333Z,35.75
2023-03-19T23:23:44.723Z,39.17
2023-03-19T23:26:38.348Z,43.65
2023-03-19T23:31:39.661Z,49.15
2023-03-19T23:34:13.393Z,53.15
2023-03-19T23:36:45.156Z,50.08
2023-03-19T23:39:15.650Z,47.75
2023-03-19T23:41:52.374Z,49.33
2023-03-19T23:44:23.625Z,48.65
2023-03-19T23:46:55.013Z,52.78
2023-03-19T23:49:31.830Z,48.45
2023-03-19T23:52:03.829Z,51.63
2023-03-19T23:54:38.547Z,56.28
2023-03-19T23:57:14.852Z,59.83
2023-03-19T23:59:47.344Z,55.72
